Flight Track Log - Related Links

Times and Time Zones

All times are in EDT time to prevent confusion due to time zone crossing. See the CSN3801 flight status page for this flight to view local times or setup timezone preferences in your user account.

Time Position Orientation Groundspeed Altitude Reporting Facility
EDT Latitude Longitude Course Direction KTS MPH feet Rate Location/Type
Sat 08:22:27 AM 23.3400 113.3000 172° South 2,200  Level FlightAware ADS-B
Sat 08:22:52 AM 23.3200 113.3070 162° South 3,200 2,400 Climbing FlightAware ADS-B
Sat 08:23:07 AM 23.3150 113.3220 110° East 3,700 2,000 Climbing FlightAware ADS-B
Sat 08:23:37 AM 23.3270 113.3460 61° Northeast 4,800 2,200 Climbing FlightAware ADS-B
Sat 08:24:02 AM 23.3400 113.3630 50° Northeast 5,500 1,680 Climbing FlightAware ADS-B
Sat 08:24:17 AM 23.3500 113.3750 48° Northeast 5,800 1,200 Climbing FlightAware ADS-B
Sat 08:24:32 AM 23.3590 113.3860 48° Northeast 6,000 800 Climbing FlightAware ADS-B
Sat 08:24:57 AM 23.3870 113.4070 35° Northeast 6,500 1,200 Climbing FlightAware ADS-B
Sat 08:25:27 AM 23.4200 113.4270 29° Northeast 7,000 1,000 Climbing FlightAware ADS-B
Sat 08:25:57 AM 23.4550 113.4490 30° Northeast 7,200 400 Climbing FlightAware ADS-B
Sat 08:26:22 AM 23.4830 113.4660 29° Northeast 8,300 2,640 Climbing FlightAware ADS-B
Sat 08:26:52 AM 23.5180 113.4890 31° Northeast 9,500 2,400 Climbing FlightAware ADS-B
Sat 08:27:32 AM 23.5660 113.5220 32° Northeast 10,400 1,350 Climbing FlightAware ADS-B
Sat 08:28:12 AM 23.6190 113.5580 32° Northeast 11,500 1,650 Climbing FlightAware ADS-B
Sat 08:28:57 AM 23.6860 113.6030 32° Northeast 11,800 400 Climbing FlightAware ADS-B
Sat 08:29:37 AM 23.7400 113.6480 37° Northeast 11,800  Level FlightAware ADS-B
Sat 08:30:22 AM 23.7770 113.7210 61° Northeast 11,800  Level FlightAware ADS-B
Sat 08:31:02 AM 23.8070 113.7900 65° Northeast 11,800  Level FlightAware ADS-B
Sat 08:32:12 AM 23.8610 113.9110 64° Northeast 12,800 857 Climbing FlightAware ADS-B
Sat 08:34:00 AM 24.0158 114.0580 41° Northeast  Level Estimated
Sat 08:34:32 AM 23.9700 114.1590 41° Northeast 12,800  Level FlightAware ADS-B
Sat 08:35:17 AM 24.0050 114.2400 65° Northeast 12,800  Level FlightAware ADS-B
Sat 08:35:57 AM 24.0360 114.3110 64° Northeast 12,800  Level FlightAware ADS-B
Sat 08:36:42 AM 24.0700 114.3890 64° Northeast 12,800  Level FlightAware ADS-B
Sat 08:37:17 AM 24.0980 114.4520 64° Northeast 12,800  Level FlightAware ADS-B
Sat 08:38:07 AM 24.1370 114.5400 64° Northeast 12,800  Level FlightAware ADS-B
Sat 08:38:37 AM 24.1590 114.5900 64° Northeast 12,800  Level FlightAware ADS-B
Sat 08:41:00 AM 24.3690 114.7786 39° Northeast  Level Estimated
Sat 08:42:00 AM 24.4571 114.8579 39° Northeast  Level Estimated
Sat 08:43:00 AM 24.5451 114.9374 39° Northeast  Level Estimated
Sat 08:44:00 AM 24.6331 115.0169 39° Northeast  Level Estimated
Sat 08:45:00 AM 24.7211 115.0966 39° Northeast  Level Estimated
Sat 08:46:00 AM 24.8090 115.1764 39° Northeast  Level Estimated
Sat 08:47:00 AM 24.8968 115.2563 40° Northeast  Level Estimated
Sat 08:48:00 AM 24.9846 115.3363 40° Northeast  Level Estimated
Sat 08:49:00 AM 25.0724 115.4164 40° Northeast  Level Estimated
Sat 08:50:00 AM 25.1601 115.4966 40° Northeast  Level Estimated
Sat 08:51:00 AM 25.2478 115.5770 40° Northeast  Level Estimated
Sat 08:52:00 AM 25.3354 115.6574 40° Northeast  Level Estimated
Sat 08:53:00 AM 25.4230 115.7380 40° Northeast  Level Estimated
Sat 08:54:00 AM 25.5106 115.8187 40° Northeast  Level Estimated
Sat 08:55:00 AM 25.5981 115.8995 40° Northeast  Level Estimated
Sat 08:56:00 AM 25.6855 115.9804 40° Northeast  Level Estimated
Sat 08:57:00 AM 25.7729 116.0615 40° Northeast  Level Estimated
Sat 08:58:00 AM 25.8603 116.1427 40° Northeast  Level Estimated
Sat 08:59:00 AM 25.9477 116.2240 40° Northeast  Level Estimated
Sat 09:00:00 AM 26.0349 116.3054 40° Northeast  Level Estimated
Sat 09:01:00 AM 26.1222 116.3869 40° Northeast  Level Estimated
Sat 09:02:00 AM 26.2094 116.4685 40° Northeast  Level Estimated
Sat 09:03:00 AM 26.2965 116.5503 40° Northeast  Level Estimated
Sat 09:04:00 AM 26.3836 116.6322 40° Northeast  Level Estimated
Sat 09:05:00 AM 26.4706 116.7142 40° Northeast  Level Estimated
Sat 09:06:00 AM 26.5576 116.7964 40° Northeast  Level Estimated
Sat 09:07:00 AM 26.6446 116.8787 40° Northeast  Level Estimated
Sat 09:08:00 AM 26.7315 116.9611 40° Northeast  Level Estimated
Sat 09:09:00 AM 26.8184 117.0436 40° Northeast  Level Estimated
Sat 09:10:00 AM 26.9052 117.1262 40° Northeast  Level Estimated
Sat 09:11:00 AM 26.9919 117.2090 40° Northeast  Level Estimated
Sat 09:12:00 AM 27.0787 117.2919 40° Northeast  Level Estimated
Sat 09:13:00 AM 27.1653 117.3749 40° Northeast  Level Estimated
Sat 09:14:00 AM 27.2519 117.4581 40° Northeast  Level Estimated
Sat 09:15:00 AM 27.3385 117.5414 41° Northeast  Level Estimated
Sat 09:16:00 AM 27.4250 117.6248 41° Northeast  Level Estimated
Sat 09:17:00 AM 27.5115 117.7084 41° Northeast  Level Estimated
Sat 09:18:00 AM 27.5979 117.7920 41° Northeast  Level Estimated
Sat 09:19:00 AM 27.6843 117.8759 41° Northeast  Level Estimated
Sat 09:20:00 AM 27.7706 117.9598 41° Northeast  Level Estimated
Sat 09:21:00 AM 27.8569 118.0439 41° Northeast  Level Estimated
Sat 09:22:00 AM 27.9431 118.1281 41° Northeast  Level Estimated
Sat 09:23:00 AM 28.0293 118.2125 41° Northeast  Level Estimated
Sat 09:24:00 AM 28.1154 118.2970 41° Northeast  Level Estimated
Sat 09:25:00 AM 28.2015 118.3816 41° Northeast  Level Estimated
Sat 09:26:00 AM 28.2875 118.4663 41° Northeast  Level Estimated
Sat 09:27:00 AM 28.3734 118.5512 41° Northeast  Level Estimated
Sat 09:28:00 AM 28.4593 118.6363 41° Northeast  Level Estimated
Sat 09:29:00 AM 28.5452 118.7214 41° Northeast  Level Estimated
Sat 09:30:00 AM 28.6310 118.8067 41° Northeast  Level Estimated
Sat 09:31:00 AM 28.7167 118.8922 41° Northeast  Level Estimated
Sat 09:32:00 AM 28.8024 118.9778 41° Northeast  Level Estimated
Sat 09:33:00 AM 28.8881 119.0635 41° Northeast  Level Estimated
Sat 09:34:00 AM 28.9736 119.1494 41° Northeast  Level Estimated
Sat 09:35:00 AM 29.0592 119.2354 41° Northeast  Level Estimated
Sat 09:36:00 AM 29.1446 119.3215 41° Northeast  Level Estimated
Sat 09:37:00 AM 29.2300 119.4079 41° Northeast  Level Estimated
Sat 09:38:00 AM 29.3154 119.4943 41° Northeast  Level Estimated
Sat 09:39:00 AM 29.4007 119.5809 41° Northeast  Level Estimated
Sat 09:40:00 AM 29.4860 119.6676 42° Northeast  Level Estimated
Sat 09:41:00 AM 29.5712 119.7545 42° Northeast  Level Estimated
Sat 09:42:00 AM 29.6563 119.8415 42° Northeast  Level Estimated
Sat 09:43:00 AM 29.7414 119.9287 42° Northeast  Level Estimated
Sat 09:44:00 AM 29.8264 120.0160 42° Northeast  Level Estimated
Sat 09:45:00 AM 29.9114 120.1035 42° Northeast  Level Estimated
Sat 09:46:00 AM 29.9963 120.1911 42° Northeast  Level Estimated
Sat 09:47:00 AM 30.0811 120.2789 42° Northeast  Level Estimated
Sat 09:48:00 AM 30.1659 120.3668 42° Northeast  Level Estimated
Sat 09:49:00 AM 30.2283 120.4317 42° Northeast  Level Estimated
Sat 09:50:00 AM 30.2283 120.4317 319° Northwest  Level Estimated
Sat 09:51:00 AM 30.2283 120.4317 319° Northwest  Level Estimated
Sat 09:52:00 AM 30.2283 120.4317 319° Northwest  Level Estimated
Sat 09:53:00 AM 30.2283 120.4317 319° Northwest  Level Estimated
Sat 09:54:00 AM 30.2283 120.4317 319° Northwest  Level Estimated
Sat 09:55:00 AM 30.2283 120.4317 319° Northwest  Level Estimated
Sat 09:56:00 AM 30.2283 120.4317 319° Northwest  Level Estimated
Sat 09:57:00 AM 30.2283 120.4317 319° Northwest  Level Estimated
Sat 09:58:00 AM 30.2283 120.4317 319° Northwest  Level Estimated
Sat 09:59:00 AM 30.2283 120.4317 319° Northwest  Level Estimated

Login

Don't have an account? Register now (free) for customized features, flight alerts, and more!